createdAt,value
2023-04-04T00:02:04.001Z,100160.31
2023-04-04T00:04:30.526Z,100163.09
2023-04-04T00:06:57.021Z,100156.53
2023-04-04T00:09:24.751Z,100165.81
2023-04-04T00:11:51.407Z,100159.69
2023-04-04T00:14:17.974Z,100153.38
2023-04-04T00:16:44.503Z,100154.19
2023-04-04T00:19:18.246Z,100151.03
2023-04-04T00:21:47.857Z,100153.38
2023-04-04T00:24:14.320Z,100154.13
2023-04-04T00:26:40.963Z,100166.94
2023-04-04T00:29:07.493Z,100159.75
2023-04-04T00:31:34.222Z,100156.59
2023-04-04T00:34:01.049Z,100156.09
2023-04-04T00:36:27.847Z,100153.94
2023-04-04T00:38:57.648Z,100160.22
2023-04-04T00:41:33.297Z,100157.66
2023-04-04T00:44:00.706Z,100157.28
2023-04-04T00:46:32.662Z,100167.06
2023-04-04T00:48:59.248Z,100157.31
2023-04-04T00:51:25.816Z,100161.97
2023-04-04T00:53:52.498Z,100154.00
2023-04-04T00:56:20.442Z,100160.91
2023-04-04T00:58:47.462Z,100155.44
2023-04-04T01:01:14.121Z,100160.38
2023-04-04T01:03:51.162Z,100162.53
2023-04-04T01:06:17.747Z,100156.50
2023-04-04T01:08:45.741Z,100152.50
2023-04-04T01:11:14.102Z,100166.13
2023-04-04T01:13:40.992Z,100155.44
2023-04-04T01:16:07.676Z,100148.53
2023-04-04T01:18:36.385Z,100154.63
2023-04-04T01:21:07.522Z,100148.50
2023-04-04T01:23:58.846Z,100156.34
2023-04-04T01:26:27.112Z,100159.81
2023-04-04T01:28:54.734Z,100152.09
2023-04-04T01:31:49.482Z,100159.44
2023-04-04T01:34:40.991Z,100143.38
2023-04-04T01:37:23.330Z,100147.31
2023-04-04T01:40:10.634Z,100146.06
2023-04-04T01:42:38.460Z,100144.88
2023-04-04T01:45:19.418Z,100139.78
2023-04-04T01:47:45.916Z,100138.56
2023-04-04T01:50:12.466Z,100137.22
2023-04-04T01:52:38.962Z,100127.13
2023-04-04T01:55:05.934Z,100130.88
2023-04-04T01:57:32.505Z,100120.03
2023-04-04T01:59:59.008Z,100127.47
2023-04-04T02:02:25.598Z,100122.81
2023-04-04T02:04:52.309Z,100124.44
2023-04-04T02:07:19.328Z,100122.47
2023-04-04T02:09:45.804Z,100121.50
2023-04-04T02:12:14.966Z,100121.88
2023-04-04T02:14:41.541Z,100116.88
2023-04-04T02:17:08.060Z,100124.22
2023-04-04T02:19:34.628Z,100118.97
2023-04-04T02:22:01.153Z,100113.16
2023-04-04T02:24:27.711Z,100119.47
2023-04-04T02:26:54.168Z,100117.94
2023-04-04T02:29:24.258Z,100126.84
2023-04-04T02:31:50.834Z,100113.56
2023-04-04T02:34:17.440Z,100124.09
2023-04-04T02:36:43.931Z,100116.28
2023-04-04T02:39:10.413Z,100112.31
2023-04-04T02:41:36.854Z,100113.19
2023-04-04T02:44:03.354Z,100109.13
2023-04-04T02:46:29.829Z,100109.78
2023-04-04T02:48:56.353Z,100100.28
2023-04-04T02:51:22.931Z,100102.00
2023-04-04T02:53:49.570Z,100096.03
2023-04-04T02:56:18.934Z,100093.44
2023-04-04T02:58:45.680Z,100094.25
2023-04-04T03:01:12.357Z,100087.56
2023-04-04T03:03:38.917Z,100092.00
2023-04-04T03:06:05.705Z,100094.53
2023-04-04T03:08:32.221Z,100091.25
2023-04-04T03:10:58.714Z,100087.13
2023-04-04T03:13:25.145Z,100085.91
2023-04-04T03:15:57.955Z,100079.91
2023-04-04T03:18:24.544Z,100079.63
2023-04-04T03:20:51.124Z,100074.66
2023-04-04T03:23:17.584Z,100070.84
2023-04-04T03:25:44.060Z,100075.25
2023-04-04T03:28:11.306Z,100071.06
2023-04-04T03:30:38.236Z,100069.06
2023-04-04T03:33:09.479Z,100065.09
2023-04-04T03:35:40.663Z,100064.88
2023-04-04T03:38:14.601Z,100058.78
2023-04-04T03:40:44.693Z,100059.91
2023-04-04T03:43:11.274Z,100062.28
2023-04-04T03:45:38.452Z,100053.59
2023-04-04T03:48:10.267Z,100059.78
2023-04-04T03:50:37.372Z,100051.66
2023-04-04T03:53:03.929Z,100053.69
2023-04-04T03:55:33.634Z,100054.63
2023-04-04T03:58:00.210Z,100054.84
2023-04-04T04:00:27.110Z,100053.50
2023-04-04T04:02:53.744Z,100051.47
2023-04-04T04:05:20.338Z,100046.38
2023-04-04T04:07:46.769Z,100042.88
2023-04-04T04:10:14.260Z,100041.72
2023-04-04T04:12:43.517Z,100043.19
2023-04-04T04:15:10.426Z,100033.09
2023-04-04T04:17:41.104Z,100035.22
2023-04-04T04:20:09.458Z,100035.50
2023-04-04T04:22:36.976Z,100033.84
2023-04-04T04:25:03.686Z,100032.75
2023-04-04T04:27:33.245Z,100035.38
2023-04-04T04:29:59.767Z,100029.75
2023-04-04T04:32:28.855Z,100034.75
2023-04-04T04:34:55.299Z,100031.91
2023-04-04T04:37:21.808Z,100037.09
2023-04-04T04:39:48.248Z,100032.88
2023-04-04T04:42:14.779Z,100034.59
2023-04-04T04:44:41.539Z,100037.66
2023-04-04T04:47:08.107Z,100034.75
2023-04-04T04:49:34.822Z,100046.56
2023-04-04T04:52:02.472Z,100049.47
2023-04-04T04:54:28.970Z,100053.97
2023-04-04T04:56:55.446Z,100050.19
2023-04-04T04:59:21.948Z,100048.69
2023-04-04T05:01:48.446Z,100055.00
2023-04-04T05:04:17.526Z,100060.38
2023-04-04T05:06:43.990Z,100058.34
2023-04-04T05:09:10.434Z,100058.28
2023-04-04T05:11:36.946Z,100056.34
2023-04-04T05:14:03.412Z,100057.94
2023-04-04T05:16:30.004Z,100053.44
2023-04-04T05:18:56.549Z,100058.16
2023-04-04T05:21:23.672Z,100055.81
2023-04-04T05:23:50.412Z,100058.31
2023-04-04T05:26:16.860Z,100054.03
2023-04-04T05:28:43.345Z,100060.19
2023-04-04T05:31:09.810Z,100058.22
2023-04-04T05:33:36.348Z,100056.94
2023-04-04T05:36:05.987Z,100063.75
2023-04-04T05:38:33.236Z,100063.97
2023-04-04T05:40:59.674Z,100066.00
2023-04-04T05:43:26.171Z,100064.13
2023-04-04T05:45:52.632Z,100071.78
2023-04-04T05:48:19.130Z,100071.03
2023-04-04T05:50:46.932Z,100071.56
2023-04-04T05:53:13.404Z,100067.38
2023-04-04T05:55:39.932Z,100072.81
2023-04-04T05:58:06.419Z,100068.38
2023-04-04T06:00:33.024Z,100068.75
2023-04-04T06:02:59.640Z,100066.78
2023-04-04T06:05:26.126Z,100076.69
2023-04-04T06:07:52.664Z,100082.97
2023-04-04T06:10:22.335Z,100084.25
2023-04-04T06:12:48.816Z,100087.66
2023-04-04T06:15:15.559Z,100089.72
2023-04-04T06:17:42.094Z,100095.91
2023-04-04T06:20:09.114Z,100093.03
2023-04-04T06:22:35.595Z,100097.81
2023-04-04T06:25:02.138Z,100101.66
2023-04-04T06:27:29.399Z,100096.03
2023-04-04T06:29:55.834Z,100099.88
2023-04-04T06:32:24.328Z,100103.47
2023-04-04T06:34:50.843Z,100106.88
2023-04-04T06:37:17.281Z,100098.81
2023-04-04T06:39:43.768Z,100097.09
2023-04-04T06:42:11.842Z,100102.47
2023-04-04T06:44:38.325Z,100098.78
2023-04-04T06:47:04.960Z,100110.47
2023-04-04T06:49:31.991Z,100099.84
2023-04-04T06:52:00.041Z,100110.19
2023-04-04T06:54:26.852Z,100101.13
2023-04-04T06:56:53.321Z,100101.75
2023-04-04T06:59:19.873Z,100102.94
2023-04-04T07:01:46.523Z,100099.84
2023-04-04T07:04:13.187Z,100108.84
2023-04-04T07:06:39.654Z,100113.56
2023-04-04T07:09:08.909Z,100113.56
2023-04-04T07:11:39.449Z,100119.59
2023-04-04T07:14:06.219Z,100108.09
2023-04-04T07:16:32.735Z,100114.81
2023-04-04T07:18:59.231Z,100107.19
2023-04-04T07:21:25.704Z,100100.50
2023-04-04T07:23:52.274Z,100097.09
2023-04-04T07:26:18.708Z,100098.88
2023-04-04T07:28:45.245Z,100100.13
2023-04-04T07:31:11.967Z,100095.97
2023-04-04T07:33:38.553Z,100096.06
2023-04-04T07:36:05.163Z,100098.13
2023-04-04T07:38:31.658Z,100098.78
2023-04-04T07:40:58.294Z,100098.97
2023-04-04T07:43:24.785Z,100098.28
2023-04-04T07:45:51.985Z,100092.78
2023-04-04T07:48:19.031Z,100092.31
2023-04-04T07:50:46.721Z,100093.13
2023-04-04T07:53:13.154Z,100088.31
2023-04-04T07:55:39.696Z,100086.75
2023-04-04T07:58:06.561Z,100089.34
2023-04-04T08:00:33.081Z,100083.56
2023-04-04T08:02:59.602Z,100083.66
2023-04-04T08:05:26.249Z,100090.09
2023-04-04T08:07:52.760Z,100084.38
2023-04-04T08:10:20.783Z,100092.09
2023-04-04T08:12:48.072Z,100081.81
2023-04-04T08:15:14.745Z,100082.84
2023-04-04T08:17:43.276Z,100077.69
2023-04-04T08:20:10.688Z,100077.75
2023-04-04T08:22:37.134Z,100080.66
2023-04-04T08:25:04.562Z,100071.47
2023-04-04T08:27:30.990Z,100080.09
2023-04-04T08:29:57.466Z,100077.72
2023-04-04T08:32:24.008Z,100072.63
2023-04-04T08:34:51.112Z,100071.13
2023-04-04T08:37:18.229Z,100066.03
2023-04-04T08:39:45.399Z,100076.72
2023-04-04T08:42:14.972Z,100078.63
2023-04-04T08:44:45.431Z,100081.44
2023-04-04T08:47:13.434Z,100078.22
2023-04-04T08:49:48.207Z,100072.03
2023-04-04T08:52:19.215Z,100074.72
2023-04-04T08:54:47.398Z,100078.59
2023-04-04T08:57:14.142Z,100078.88
2023-04-04T08:59:40.725Z,100080.97
2023-04-04T09:02:10.183Z,100072.81
2023-04-04T09:04:41.963Z,100080.44
2023-04-04T09:07:10.633Z,100075.97
2023-04-04T09:09:38.793Z,100072.38
2023-04-04T09:12:06.620Z,100079.09
2023-04-04T09:14:37.319Z,100086.56
2023-04-04T09:17:03.937Z,100075.25
2023-04-04T09:19:30.439Z,100083.38
2023-04-04T09:21:57.934Z,100080.94
2023-04-04T09:24:24.479Z,100080.94
2023-04-04T09:26:53.051Z,100073.03
2023-04-04T09:29:26.336Z,100076.72
2023-04-04T09:31:52.865Z,100074.00
2023-04-04T09:34:20.516Z,100067.94
2023-04-04T09:36:47.729Z,100069.47
2023-04-04T09:39:17.626Z,100072.69
2023-04-04T09:41:44.787Z,100060.81
2023-04-04T09:44:13.020Z,100058.03
2023-04-04T09:46:40.671Z,100054.56
2023-04-04T09:49:13.258Z,100065.44
2023-04-04T09:51:42.482Z,100065.78
2023-04-04T09:54:18.564Z,100053.78
2023-04-04T09:56:45.947Z,100057.69
2023-04-04T09:59:13.704Z,100053.78
2023-04-04T10:01:40.527Z,100047.34
2023-04-04T10:04:11.822Z,100056.41
2023-04-04T10:06:38.658Z,100049.00
2023-04-04T10:09:07.952Z,100052.72
2023-04-04T10:11:36.625Z,100054.25
2023-04-04T10:14:06.720Z,100045.56
2023-04-04T10:16:37.766Z,100051.09
2023-04-04T10:19:07.808Z,100049.78
2023-04-04T10:21:35.063Z,100050.94
2023-04-04T10:24:08.828Z,100054.50
2023-04-04T10:26:35.530Z,100043.25
2023-04-04T10:29:02.064Z,100043.56
2023-04-04T10:31:32.654Z,100047.06
2023-04-04T10:34:17.524Z,100040.69
2023-04-04T10:36:54.019Z,100038.16
2023-04-04T10:39:32.647Z,100043.66
2023-04-04T10:42:01.511Z,100039.03
2023-04-04T10:44:38.861Z,100038.91
2023-04-04T10:47:21.816Z,100036.81
2023-04-04T10:49:53.964Z,100037.59
2023-04-04T10:52:24.167Z,100043.69
2023-04-04T10:54:54.270Z,100043.06
2023-04-04T10:57:21.294Z,100039.56
2023-04-04T10:59:58.818Z,100041.28
2023-04-04T11:02:45.689Z,100041.84
2023-04-04T11:05:20.088Z,100047.19
2023-04-04T11:08:00.771Z,100039.31
2023-04-04T11:10:36.804Z,100031.56
2023-04-04T11:13:13.691Z,100025.94
2023-04-04T11:16:02.072Z,100024.72
2023-04-04T11:21:07.504Z,100012.53
2023-04-04T11:23:49.165Z,100016.78
2023-04-04T11:26:34.685Z,100002.31
2023-04-04T11:29:05.000Z,100004.75
2023-04-04T11:31:37.986Z,100010.41
2023-04-04T11:34:12.642Z,100001.56
2023-04-04T11:36:40.022Z,99998.94
2023-04-04T11:39:13.398Z,99993.03
2023-04-04T11:41:58.866Z,99975.50
2023-04-04T11:44:30.679Z,99979.75
2023-04-04T11:47:07.017Z,99977.06
2023-04-04T11:49:37.415Z,99969.72
2023-04-04T11:52:11.785Z,99978.25
2023-04-04T11:54:39.931Z,99973.47
2023-04-04T11:57:20.132Z,99965.22
2023-04-04T11:59:51.473Z,99962.19
2023-04-04T12:02:27.806Z,99966.56
2023-04-04T12:04:55.340Z,99959.91
2023-04-04T12:07:24.636Z,99975.88
2023-04-04T12:09:51.703Z,99975.78
2023-04-04T12:12:18.256Z,99968.03
2023-04-04T12:14:44.997Z,99968.84
2023-04-04T12:17:11.958Z,99959.44
2023-04-04T12:19:40.333Z,99964.16
2023-04-04T12:22:10.858Z,99969.25
2023-04-04T12:24:41.338Z,99952.09
2023-04-04T12:27:08.092Z,99958.78
2023-04-04T12:29:38.622Z,99958.34
2023-04-04T12:32:06.381Z,99954.28
2023-04-04T12:34:34.253Z,99959.97
2023-04-04T12:37:02.129Z,99946.97
2023-04-04T12:39:29.491Z,99956.44
2023-04-04T12:42:01.618Z,99944.13
2023-04-04T12:44:30.911Z,99939.13
2023-04-04T12:47:02.377Z,99924.00
2023-04-04T12:49:33.726Z,99924.72
2023-04-04T12:52:07.451Z,99928.53
2023-04-04T12:54:37.343Z,99914.28
2023-04-04T12:57:05.647Z,99910.47
2023-04-04T12:59:34.064Z,99913.97
2023-04-04T13:02:21.137Z,99910.63
2023-04-04T13:04:52.551Z,99903.44
2023-04-04T13:07:32.433Z,99902.38
2023-04-04T13:10:05.541Z,99891.31
2023-04-04T13:13:00.650Z,99882.06
2023-04-04T13:15:52.188Z,99885.88
2023-04-04T13:18:21.942Z,99886.38
2023-04-04T13:20:51.993Z,99880.91
2023-04-04T13:23:18.957Z,99870.63
2023-04-04T13:25:45.597Z,99866.97
2023-04-04T13:28:12.382Z,99868.19
2023-04-04T13:30:43.379Z,99865.09
2023-04-04T13:33:09.947Z,99855.84
2023-04-04T13:35:36.500Z,99866.88
2023-04-04T13:38:02.980Z,99862.50
2023-04-04T13:40:29.528Z,99855.41
2023-04-04T13:42:56.333Z,99858.28
2023-04-04T13:45:23.029Z,99850.75
2023-04-04T13:47:49.502Z,99857.97
2023-04-04T13:50:16.558Z,99846.63
2023-04-04T13:52:42.988Z,99844.34
2023-04-04T13:55:10.455Z,99844.88
2023-04-04T13:57:37.034Z,99836.56
2023-04-04T14:00:05.586Z,99830.09
2023-04-04T14:02:32.165Z,99835.97
2023-04-04T14:04:58.675Z,99827.34
2023-04-04T14:07:25.304Z,99822.63
2023-04-04T14:09:51.808Z,99823.06
2023-04-04T14:12:18.254Z,99824.38
2023-04-04T14:14:44.770Z,99822.28
2023-04-04T14:17:11.340Z,99812.25
2023-04-04T14:19:38.922Z,99812.47
2023-04-04T14:22:06.474Z,99810.53
2023-04-04T14:24:33.064Z,99816.09
2023-04-04T14:26:59.536Z,99814.03
2023-04-04T14:29:26.570Z,99815.84
2023-04-04T14:31:55.501Z,99807.00
2023-04-04T14:34:22.261Z,99806.94
2023-04-04T14:36:48.794Z,99807.78
2023-04-04T14:39:15.280Z,99804.66
2023-04-04T14:41:41.817Z,99807.28
2023-04-04T14:44:08.600Z,99804.22
2023-04-04T14:46:35.492Z,99806.88
2023-04-04T14:49:03.216Z,99804.47
2023-04-04T14:51:29.743Z,99807.19
2023-04-04T14:53:56.426Z,99807.94
2023-04-04T14:56:23.684Z,99801.03
2023-04-04T14:58:50.776Z,99798.75
2023-04-04T15:01:17.580Z,99805.41
2023-04-04T15:03:44.066Z,99796.78
2023-04-04T15:06:10.715Z,99789.84
2023-04-04T15:08:37.771Z,99788.06
2023-04-04T15:11:04.518Z,99789.00
2023-04-04T15:13:31.330Z,99788.06
2023-04-04T15:16:01.634Z,99794.91
2023-04-04T15:18:28.355Z,99781.81
2023-04-04T15:20:57.336Z,99787.72
2023-04-04T15:23:23.932Z,99782.66
2023-04-04T15:25:50.521Z,99783.16
2023-04-04T15:28:19.793Z,99784.47
2023-04-04T15:30:46.278Z,99782.06
2023-04-04T15:33:13.084Z,99779.41
2023-04-04T15:35:39.650Z,99778.59
2023-04-04T15:38:06.104Z,99776.03
2023-04-04T15:40:32.558Z,99783.66
2023-04-04T15:42:59.018Z,99780.91
2023-04-04T15:45:25.638Z,99779.00
2023-04-04T15:47:52.137Z,99776.41
2023-04-04T15:50:18.645Z,99769.69
2023-04-04T15:52:45.176Z,99773.47
2023-04-04T15:55:14.364Z,99761.38
2023-04-04T15:57:44.264Z,99759.50
2023-04-04T16:00:12.914Z,99754.03
2023-04-04T16:02:39.571Z,99758.34
2023-04-04T16:05:06.937Z,99759.81
2023-04-04T16:07:33.426Z,99752.59
2023-04-04T16:10:00.783Z,99753.31
2023-04-04T16:12:27.264Z,99750.06
2023-04-04T16:14:53.697Z,99750.81
2023-04-04T16:17:20.187Z,99750.66
2023-04-04T16:19:46.754Z,99750.88
2023-04-04T16:22:15.222Z,99752.84
2023-04-04T16:24:41.741Z,99750.75
2023-04-04T16:27:08.243Z,99753.44
2023-04-04T16:29:34.718Z,99754.06
2023-04-04T16:32:01.195Z,99738.09
2023-04-04T16:34:27.661Z,99750.22
2023-04-04T16:36:54.273Z,99738.19
2023-04-04T16:39:20.778Z,99733.69
2023-04-04T16:41:47.252Z,99738.84
2023-04-04T16:44:15.302Z,99741.41
2023-04-04T16:46:47.205Z,99737.91
2023-04-04T16:49:13.568Z,99735.91
2023-04-04T16:51:40.186Z,99731.38
2023-04-04T16:54:06.727Z,99731.16
2023-04-04T16:56:33.242Z,99730.06
2023-04-04T16:58:59.801Z,99729.75
2023-04-04T17:01:26.743Z,99727.84
2023-04-04T17:03:53.506Z,99737.25
2023-04-04T17:06:19.946Z,99730.09
2023-04-04T17:08:46.846Z,99739.28
2023-04-04T17:11:13.457Z,99738.81
2023-04-04T17:13:40.167Z,99738.63
2023-04-04T17:16:07.312Z,99743.81
2023-04-04T17:18:34.216Z,99745.34
2023-04-04T17:21:01.280Z,99738.97
2023-04-04T17:23:27.840Z,99742.53
2023-04-04T17:25:54.269Z,99737.13
2023-04-04T17:28:20.840Z,99738.06
2023-04-04T17:30:47.305Z,99732.81
2023-04-04T17:33:14.790Z,99737.19
2023-04-04T17:35:41.340Z,99733.66
2023-04-04T17:38:08.041Z,99732.59
2023-04-04T17:40:39.251Z,99735.97
2023-04-04T17:43:07.246Z,99730.88
2023-04-04T17:45:33.887Z,99735.34
2023-04-04T17:48:00.417Z,99736.97
2023-04-04T17:50:30.408Z,99739.00
2023-04-04T17:52:56.892Z,99729.22
2023-04-04T17:55:23.694Z,99739.78
2023-04-04T17:57:53.531Z,99740.63
2023-04-04T18:00:21.582Z,99734.44
2023-04-04T18:02:48.277Z,99736.75
2023-04-04T18:05:14.909Z,99733.06
2023-04-04T18:07:41.356Z,99730.03
2023-04-04T18:10:08.473Z,99735.25
2023-04-04T18:12:35.950Z,99731.09
2023-04-04T18:15:03.571Z,99726.84
2023-04-04T18:17:31.163Z,99729.50
2023-04-04T18:19:58.940Z,99726.84
2023-04-04T18:22:27.011Z,99728.63
2023-04-04T18:24:55.596Z,99735.63
2023-04-04T18:27:22.040Z,99740.88
2023-04-04T18:29:49.761Z,99730.50
2023-04-04T18:32:17.584Z,99725.38
2023-04-04T18:34:44.071Z,99734.06
2023-04-04T18:37:12.247Z,99728.00
2023-04-04T18:39:38.801Z,99736.84
2023-04-04T18:42:05.479Z,99731.53
2023-04-04T18:44:32.949Z,99731.59
2023-04-04T18:47:04.109Z,99739.47
2023-04-04T18:49:31.247Z,99736.13
2023-04-04T18:51:58.128Z,99739.47
2023-04-04T18:54:26.969Z,99740.25
2023-04-04T18:56:56.091Z,99738.44
2023-04-04T18:59:24.198Z,99740.16
2023-04-04T19:01:54.212Z,99742.88
2023-04-04T19:04:21.581Z,99736.91
2023-04-04T19:06:53.134Z,99730.94
2023-04-04T19:09:20.820Z,99743.31
2023-04-04T19:11:48.182Z,99739.31
2023-04-04T19:14:14.791Z,99731.34
2023-04-04T19:16:41.914Z,99737.53
2023-04-04T19:19:08.618Z,99733.31
2023-04-04T19:21:35.428Z,99744.31
2023-04-04T19:24:01.906Z,99742.41
2023-04-04T19:26:31.452Z,99744.84
2023-04-04T19:28:58.742Z,99737.00
2023-04-04T19:31:30.149Z,99737.72
2023-04-04T19:33:56.872Z,99743.91
2023-04-04T19:36:23.960Z,99736.66
2023-04-04T19:38:54.651Z,99744.09
2023-04-04T19:41:33.649Z,99739.06
2023-04-04T19:44:00.610Z,99743.19
2023-04-04T19:46:32.880Z,99733.44
2023-04-04T19:49:09.346Z,99739.50
2023-04-04T19:51:38.616Z,99736.91
2023-04-04T19:54:08.346Z,99739.25
2023-04-04T19:56:35.405Z,99739.25
2023-04-04T19:59:05.290Z,99740.00
2023-04-04T20:01:34.935Z,99736.91
2023-04-04T20:04:09.636Z,99738.78
2023-04-04T20:06:38.350Z,99742.69
2023-04-04T20:09:12.794Z,99743.97
2023-04-04T20:11:39.335Z,99743.06
2023-04-04T20:14:07.781Z,99743.47
2023-04-04T20:16:34.776Z,99745.06
2023-04-04T20:19:03.723Z,99744.34
2023-04-04T20:21:33.859Z,99741.94
2023-04-04T20:24:08.656Z,99736.94
2023-04-04T20:26:35.550Z,99741.94
2023-04-04T20:29:07.602Z,99731.72
2023-04-04T20:31:37.356Z,99737.09
2023-04-04T20:34:06.632Z,99737.94
2023-04-04T20:36:37.225Z,99734.66
2023-04-04T20:39:27.852Z,99733.75
2023-04-04T20:41:55.783Z,99734.53
2023-04-04T20:44:22.392Z,99734.41
2023-04-04T20:46:48.869Z,99739.56
2023-04-04T20:49:19.697Z,99736.06
2023-04-04T20:51:46.153Z,99741.16
2023-04-04T20:54:12.663Z,99731.28
2023-04-04T20:56:43.088Z,99735.97
2023-04-04T20:59:32.417Z,99740.22
2023-04-04T21:02:15.682Z,99739.31
2023-04-04T21:04:45.509Z,99737.53
2023-04-04T21:07:41.397Z,99731.03
2023-04-04T21:10:37.332Z,99735.84
2023-04-04T21:13:05.555Z,99733.91
2023-04-04T21:15:38.680Z,99735.56
2023-04-04T21:18:09.558Z,99732.47
2023-04-04T21:20:47.904Z,99730.56
2023-04-04T21:23:26.561Z,99732.53
2023-04-04T21:25:58.631Z,99729.56
2023-04-04T21:28:29.753Z,99731.66
2023-04-04T21:30:56.581Z,99723.88
2023-04-04T21:33:23.189Z,99727.75
2023-04-04T21:35:51.596Z,99725.88
2023-04-04T21:38:32.841Z,99725.38
2023-04-04T21:41:12.820Z,99723.13
2023-04-04T21:43:39.277Z,99724.31
2023-04-04T21:46:05.859Z,99714.19
2023-04-04T21:48:32.332Z,99716.13
2023-04-04T21:50:58.858Z,99717.69
2023-04-04T21:53:25.405Z,99714.81
2023-04-04T21:55:51.896Z,99707.69
2023-04-04T21:58:18.837Z,99713.88
2023-04-04T22:00:45.523Z,99701.47
2023-04-04T22:03:12.172Z,99704.44
2023-04-04T22:05:39.594Z,99705.41
2023-04-04T22:08:06.655Z,99709.13
2023-04-04T22:10:33.580Z,99700.66
2023-04-04T22:13:02.220Z,99695.34
2023-04-04T22:15:35.064Z,99703.88
2023-04-04T22:18:05.085Z,99704.44
2023-04-04T22:20:32.240Z,99698.84
2023-04-04T22:22:59.510Z,99702.78
2023-04-04T22:25:27.218Z,99705.31
2023-04-04T22:27:53.814Z,99702.00
2023-04-04T22:30:21.640Z,99699.91
2023-04-04T22:32:48.275Z,99695.56
2023-04-04T22:35:14.827Z,99694.03
2023-04-04T22:37:41.446Z,99696.19
2023-04-04T22:40:11.986Z,99691.44
2023-04-04T22:42:38.538Z,99697.75
2023-04-04T22:45:05.454Z,99684.63
2023-04-04T22:47:32.067Z,99685.38
2023-04-04T22:50:04.580Z,99683.91
2023-04-04T22:52:32.144Z,99687.69
2023-04-04T22:55:02.562Z,99681.53
2023-04-04T22:57:29.121Z,99682.88
2023-04-04T22:59:55.653Z,99682.19
2023-04-04T23:02:22.147Z,99671.91
2023-04-04T23:04:48.592Z,99669.97
2023-04-04T23:07:15.108Z,99666.59
2023-04-04T23:09:41.560Z,99676.13
2023-04-04T23:12:08.382Z,99667.50
2023-04-04T23:14:38.673Z,99673.59
2023-04-04T23:17:06.121Z,99674.34
2023-04-04T23:19:32.585Z,99671.81
2023-04-04T23:21:59.722Z,99671.09
2023-04-04T23:24:26.404Z,99667.41
2023-04-04T23:26:53.019Z,99667.09
2023-04-04T23:29:19.469Z,99666.72
2023-04-04T23:31:48.654Z,99670.75
2023-04-04T23:34:15.245Z,99660.78
2023-04-04T23:36:41.814Z,99662.28
2023-04-04T23:39:08.313Z,99660.03
2023-04-04T23:41:34.742Z,99659.72
2023-04-04T23:44:01.294Z,99659.56
2023-04-04T23:46:30.411Z,99660.94
2023-04-04T23:48:57.026Z,99651.78
2023-04-04T23:51:25.592Z,99650.28
2023-04-04T23:53:52.592Z,99651.50
2023-04-04T23:56:19.094Z,99659.19
2023-04-04T23:58:45.713Z,99652.28
